sensor_id;sensor_type;location;lat;lon;timestamp;temperature;humidity
15184;DHT22;7693;49.266;7.104;2023-01-16T06:05:00;4.40;99.90
15184;DHT22;7693;49.266;7.104;2023-01-16T06:07:25;4.40;99.90
15184;DHT22;7693;49.266;7.104;2023-01-16T06:09:51;4.50;99.90
15184;DHT22;7693;49.266;7.104;2023-01-16T06:12:18;4.50;99.90
15184;DHT22;7693;49.266;7.104;2023-01-16T06:14:44;4.60;99.90
15184;DHT22;7693;49.266;7.104;2023-01-16T06:17:10;4.60;99.90
15184;DHT22;7693;49.266;7.104;2023-01-16T06:19:40;4.70;99.90
15184;DHT22;7693;49.266;7.104;2023-01-16T06:22:05;4.70;99.90
15184;DHT22;7693;49.266;7.104;2023-01-16T06:24:31;4.80;99.90
15184;DHT22;7693;49.266;7.104;2023-01-16T06:26:57;4.80;99.90
15184;DHT22;7693;49.266;7.104;2023-01-16T06:29:22;4.90;99.90
15184;DHT22;7693;49.266;7.104;2023-01-16T06:31:48;4.90;99.90
15184;DHT22;7693;49.266;7.104;2023-01-16T06:34:13;4.90;99.90
15184;DHT22;7693;49.266;7.104;2023-01-16T06:36:39;4.90;99.90
15184;DHT22;7693;49.266;7.104;2023-01-16T06:39:07;4.90;99.90
15184;DHT22;7693;49.266;7.104;2023-01-16T06:41:33;4.90;99.90
15184;DHT22;7693;49.266;7.104;2023-01-16T06:43:58;4.90;99.90
15184;DHT22;7693;49.266;7.104;2023-01-16T06:46:24;4.90;99.90
15184;DHT22;7693;49.266;7.104;2023-01-16T06:48:49;4.90;99.90
15184;DHT22;7693;49.266;7.104;2023-01-16T06:51:15;4.90;99.90
15184;DHT22;7693;49.266;7.104;2023-01-16T06:53:41;4.90;99.90
15184;DHT22;7693;49.266;7.104;2023-01-16T06:56:06;4.90;99.90
15184;DHT22;7693;49.266;7.104;2023-01-16T06:58:32;4.90;99.90
15184;DHT22;7693;49.266;7.104;2023-01-16T07:00:57;4.90;99.90
15184;DHT22;7693;49.266;7.104;2023-01-16T07:03:23;4.90;99.90
15184;DHT22;7693;49.266;7.104;2023-01-16T07:05:50;4.90;99.90
15184;DHT22;7693;49.266;7.104;2023-01-16T07:08:16;4.90;99.90
15184;DHT22;7693;49.266;7.104;2023-01-16T07:10:41;4.90;99.90
15184;DHT22;7693;49.266;7.104;2023-01-16T07:13:07;4.90;99.90
15184;DHT22;7693;49.266;7.104;2023-01-16T07:15:33;4.80;99.90
15184;DHT22;7693;49.266;7.104;2023-01-16T07:18:17;4.80;99.90
15184;DHT22;7693;49.266;7.104;2023-01-16T07:21:04;4.70;99.90
15184;DHT22;7693;49.266;7.104;2023-01-16T07:23:55;4.70;99.90
15184;DHT22;7693;49.266;7.104;2023-01-16T07:26:24;4.60;99.90
15184;DHT22;7693;49.266;7.104;2023-01-16T07:28:51;4.60;99.90
15184;DHT22;7693;49.266;7.104;2023-01-16T07:31:17;4.50;99.90
15184;DHT22;7693;49.266;7.104;2023-01-16T07:33:43;4.40;99.90
15184;DHT22;7693;49.266;7.104;2023-01-16T07:36:08;4.40;99.90
15184;DHT22;7693;49.266;7.104;2023-01-16T07:38:34;4.30;99.90
15184;DHT22;7693;49.266;7.104;2023-01-16T07:40:59;4.30;99.90
15184;DHT22;7693;49.266;7.104;2023-01-16T07:43:25;4.30;99.90
15184;DHT22;7693;49.266;7.104;2023-01-16T13:12:38;6.30;99.90
15184;DHT22;7693;49.266;7.104;2023-01-16T13:15:26;6.40;99.90
15184;DHT22;7693;49.266;7.104;2023-01-16T13:17:58;6.40;99.90
15184;DHT22;7693;49.266;7.104;2023-01-16T13:20:26;6.40;99.90
15184;DHT22;7693;49.266;7.104;2023-01-16T13:22:58;6.40;99.90
15184;DHT22;7693;49.266;7.104;2023-01-16T13:25:46;6.50;99.90
15184;DHT22;7693;49.266;7.104;2023-01-16T13:28:37;6.40;99.90
15184;DHT22;7693;49.266;7.104;2023-01-16T13:31:32;6.40;99.90
15184;DHT22;7693;49.266;7.104;2023-01-16T13:34:20;6.40;99.90
15184;DHT22;7693;49.266;7.104;2023-01-16T13:42:41;6.30;99.90
15184;DHT22;7693;49.266;7.104;2023-01-16T13:45:25;6.20;99.90
15184;DHT22;7693;49.266;7.104;2023-01-16T13:48:11;6.20;99.90
15184;DHT22;7693;49.266;7.104;2023-01-16T13:50:37;6.10;99.90
15184;DHT22;7693;49.266;7.104;2023-01-16T13:53:07;6.10;99.90
15184;DHT22;7693;49.266;7.104;2023-01-16T13:55:36;6.00;99.90
15184;DHT22;7693;49.266;7.104;2023-01-16T13:58:20;6.00;99.90
15184;DHT22;7693;49.266;7.104;2023-01-16T14:00:56;5.90;99.90
15184;DHT22;7693;49.266;7.104;2023-01-16T14:03:27;5.90;99.90
15184;DHT22;7693;49.266;7.104;2023-01-16T14:08:45;5.80;99.90
15184;DHT22;7693;49.266;7.104;2023-01-16T14:17:21;5.70;99.90
15184;DHT22;7693;49.266;7.104;2023-01-16T14:20:01;5.60;99.90
15184;DHT22;7693;49.266;7.104;2023-01-16T14:22:34;5.60;99.90
15184;DHT22;7693;49.266;7.104;2023-01-16T14:25:01;5.60;99.90
15184;DHT22;7693;49.266;7.104;2023-01-16T14:27:37;5.50;99.90
15184;DHT22;7693;49.266;7.104;2023-01-16T14:30:12;5.50;99.90
15184;DHT22;7693;49.266;7.104;2023-01-16T14:32:45;5.50;99.90
15184;DHT22;7693;49.266;7.104;2023-01-16T14:35:16;5.50;99.90
15184;DHT22;7693;49.266;7.104;2023-01-16T14:37:53;5.50;99.90
15184;DHT22;7693;49.266;7.104;2023-01-16T14:40:22;5.50;99.90
15184;DHT22;7693;49.266;7.104;2023-01-16T14:43:31;5.50;99.90
15184;DHT22;7693;49.266;7.104;2023-01-16T14:58:07;5.40;99.90
15184;DHT22;7693;49.266;7.104;2023-01-16T15:00:34;5.40;99.90
15184;DHT22;7693;49.266;7.104;2023-01-16T15:03:09;5.40;99.90
15184;DHT22;7693;49.266;7.104;2023-01-16T15:05:48;5.30;99.90
15184;DHT22;7693;49.266;7.104;2023-01-16T15:08:27;5.30;99.90
15184;DHT22;7693;49.266;7.104;2023-01-16T15:10:55;5.30;99.90
15184;DHT22;7693;49.266;7.104;2023-01-16T15:13:30;5.30;99.90
15184;DHT22;7693;49.266;7.104;2023-01-16T15:16:23;5.30;99.90
15184;DHT22;7693;49.266;7.104;2023-01-16T15:19:20;5.30;99.90
15184;DHT22;7693;49.266;7.104;2023-01-16T15:22:18;5.20;99.90
15184;DHT22;7693;49.266;7.104;2023-01-16T15:24:54;5.20;99.90
15184;DHT22;7693;49.266;7.104;2023-01-16T15:27:28;5.20;99.90
15184;DHT22;7693;49.266;7.104;2023-01-16T15:30:04;5.10;99.90
15184;DHT22;7693;49.266;7.104;2023-01-16T15:32:51;5.10;99.90
15184;DHT22;7693;49.266;7.104;2023-01-16T15:35:18;5.10;99.90
15184;DHT22;7693;49.266;7.104;2023-01-16T15:37:52;5.10;99.90
15184;DHT22;7693;49.266;7.104;2023-01-16T15:40:27;5.00;99.90
15184;DHT22;7693;49.266;7.104;2023-01-16T15:42:54;5.10;99.90
15184;DHT22;7693;49.266;7.104;2023-01-16T15:48:59;5.00;99.90
15184;DHT22;7693;49.266;7.104;2023-01-16T15:51:27;5.00;99.90
15184;DHT22;7693;49.266;7.104;2023-01-16T15:53:56;5.00;99.90
15184;DHT22;7693;49.266;7.104;2023-01-16T15:58:52;4.90;99.90
15184;DHT22;7693;49.266;7.104;2023-01-16T16:01:38;4.90;99.90
15184;DHT22;7693;49.266;7.104;2023-01-16T16:04:04;4.80;99.90
15184;DHT22;7693;49.266;7.104;2023-01-16T16:06:30;4.70;99.90
15184;DHT22;7693;49.266;7.104;2023-01-16T16:09:00;4.70;99.90
15184;DHT22;7693;49.266;7.104;2023-01-16T16:11:30;4.60;99.90
15184;DHT22;7693;49.266;7.104;2023-01-16T16:14:22;4.60;99.90
15184;DHT22;7693;49.266;7.104;2023-01-16T16:17:28;4.60;99.90
15184;DHT22;7693;49.266;7.104;2023-01-16T16:20:32;4.60;99.90
15184;DHT22;7693;49.266;7.104;2023-01-16T16:23:03;4.60;99.90
15184;DHT22;7693;49.266;7.104;2023-01-16T16:25:36;4.50;99.90
15184;DHT22;7693;49.266;7.104;2023-01-16T16:28:25;4.50;99.90
15184;DHT22;7693;49.266;7.104;2023-01-16T16:30:57;4.50;99.90
15184;DHT22;7693;49.266;7.104;2023-01-16T16:33:24;4.50;99.90
15184;DHT22;7693;49.266;7.104;2023-01-16T16:35:55;4.50;99.90
15184;DHT22;7693;49.266;7.104;2023-01-16T16:44:23;4.40;99.90
15184;DHT22;7693;49.266;7.104;2023-01-16T16:46:49;4.40;99.90
15184;DHT22;7693;49.266;7.104;2023-01-16T16:51:40;4.40;99.90
15184;DHT22;7693;49.266;7.104;2023-01-16T16:56:36;4.30;99.90
15184;DHT22;7693;49.266;7.104;2023-01-16T16:59:02;4.30;99.90
15184;DHT22;7693;49.266;7.104;2023-01-16T17:01:29;4.30;99.90
15184;DHT22;7693;49.266;7.104;2023-01-16T17:04:01;4.30;99.90
15184;DHT22;7693;49.266;7.104;2023-01-16T17:06:30;4.20;99.90
15184;DHT22;7693;49.266;7.104;2023-01-16T17:08:57;4.20;99.90
15184;DHT22;7693;49.266;7.104;2023-01-16T17:11:23;4.20;99.90
15184;DHT22;7693;49.266;7.104;2023-01-16T17:13:48;4.10;99.90
15184;DHT22;7693;49.266;7.104;2023-01-16T17:16:22;4.10;99.90
15184;DHT22;7693;49.266;7.104;2023-01-16T17:18:58;4.10;99.90
15184;DHT22;7693;49.266;7.104;2023-01-16T17:21:24;4.10;99.90
15184;DHT22;7693;49.266;7.104;2023-01-16T17:23:49;4.00;99.90
15184;DHT22;7693;49.266;7.104;2023-01-16T17:26:15;4.00;99.90
15184;DHT22;7693;49.266;7.104;2023-01-16T17:28:41;3.90;99.90
15184;DHT22;7693;49.266;7.104;2023-01-16T17:31:12;3.90;99.90
15184;DHT22;7693;49.266;7.104;2023-01-16T17:33:39;3.90;99.90
15184;DHT22;7693;49.266;7.104;2023-01-16T17:36:05;3.90;99.90
15184;DHT22;7693;49.266;7.104;2023-01-16T17:38:40;3.90;99.90
15184;DHT22;7693;49.266;7.104;2023-01-16T20:17:29;4.00;99.90
15184;DHT22;7693;49.266;7.104;2023-01-16T20:19:55;4.00;99.90
15184;DHT22;7693;49.266;7.104;2023-01-16T20:22:22;4.00;99.90
15184;DHT22;7693;49.266;7.104;2023-01-16T20:24:47;4.00;99.90
15184;DHT22;7693;49.266;7.104;2023-01-16T20:27:15;4.00;99.90
15184;DHT22;7693;49.266;7.104;2023-01-16T20:29:42;4.00;99.90
15184;DHT22;7693;49.266;7.104;2023-01-16T20:32:07;4.00;99.90
15184;DHT22;7693;49.266;7.104;2023-01-16T20:34:33;4.10;99.90
15184;DHT22;7693;49.266;7.104;2023-01-16T20:37:00;4.10;99.90
15184;DHT22;7693;49.266;7.104;2023-01-16T20:39:27;4.10;99.90
15184;DHT22;7693;49.266;7.104;2023-01-16T20:41:53;4.10;99.90
15184;DHT22;7693;49.266;7.104;2023-01-16T20:44:37;4.10;99.90
15184;DHT22;7693;49.266;7.104;2023-01-16T20:47:21;4.10;99.90
15184;DHT22;7693;49.266;7.104;2023-01-16T20:49:47;4.10;99.90
15184;DHT22;7693;49.266;7.104;2023-01-16T20:52:16;4.10;99.90
15184;DHT22;7693;49.266;7.104;2023-01-16T20:54:42;4.10;99.90
15184;DHT22;7693;49.266;7.104;2023-01-16T20:57:08;4.10;99.90
15184;DHT22;7693;49.266;7.104;2023-01-16T20:59:34;4.10;99.90
15184;DHT22;7693;49.266;7.104;2023-01-16T21:02:00;4.10;99.90
15184;DHT22;7693;49.266;7.104;2023-01-16T21:04:29;4.10;99.90
15184;DHT22;7693;49.266;7.104;2023-01-16T21:06:57;4.10;99.90
15184;DHT22;7693;49.266;7.104;2023-01-16T21:09:23;4.10;99.90
15184;DHT22;7693;49.266;7.104;2023-01-16T21:11:48;4.10;99.90
15184;DHT22;7693;49.266;7.104;2023-01-16T21:14:33;4.10;99.90
15184;DHT22;7693;49.266;7.104;2023-01-16T21:17:00;4.10;99.90
15184;DHT22;7693;49.266;7.104;2023-01-16T21:19:45;4.10;99.90
15184;DHT22;7693;49.266;7.104;2023-01-16T21:22:31;4.10;99.90
15184;DHT22;7693;49.266;7.104;2023-01-16T21:24:57;4.10;99.90
15184;DHT22;7693;49.266;7.104;2023-01-16T21:27:25;4.10;99.90
15184;DHT22;7693;49.266;7.104;2023-01-16T21:29:55;4.10;99.90
15184;DHT22;7693;49.266;7.104;2023-01-16T21:32:21;4.10;99.90
15184;DHT22;7693;49.266;7.104;2023-01-16T21:34:48;4.10;99.90
15184;DHT22;7693;49.266;7.104;2023-01-16T21:37:14;4.10;99.90
15184;DHT22;7693;49.266;7.104;2023-01-16T21:39:40;4.10;99.90
15184;DHT22;7693;49.266;7.104;2023-01-16T21:42:07;4.10;99.90
15184;DHT22;7693;49.266;7.104;2023-01-16T21:44:52;4.10;99.90
15184;DHT22;7693;49.266;7.104;2023-01-16T21:47:36;4.00;99.90
15184;DHT22;7693;49.266;7.104;2023-01-16T21:50:02;4.00;99.90
15184;DHT22;7693;49.266;7.104;2023-01-16T21:52:28;4.00;99.90
15184;DHT22;7693;49.266;7.104;2023-01-16T21:54:53;4.00;99.90
15184;DHT22;7693;49.266;7.104;2023-01-16T21:57:19;4.00;99.90
15184;DHT22;7693;49.266;7.104;2023-01-16T21:59:44;4.00;99.90
15184;DHT22;7693;49.266;7.104;2023-01-16T22:02:13;4.00;99.90
15184;DHT22;7693;49.266;7.104;2023-01-16T22:04:39;4.00;99.90
15184;DHT22;7693;49.266;7.104;2023-01-16T22:07:04;4.00;99.90
15184;DHT22;7693;49.266;7.104;2023-01-16T22:09:30;4.00;99.90
15184;DHT22;7693;49.266;7.104;2023-01-16T22:11:56;4.00;99.90
15184;DHT22;7693;49.266;7.104;2023-01-16T22:14:40;4.00;99.90
15184;DHT22;7693;49.266;7.104;2023-01-16T22:17:24;4.00;99.90
15184;DHT22;7693;49.266;7.104;2023-01-16T22:20:15;3.90;99.90
15184;DHT22;7693;49.266;7.104;2023-01-16T22:22:47;4.00;99.90
15184;DHT22;7693;49.266;7.104;2023-01-16T22:25:20;3.90;99.90
15184;DHT22;7693;49.266;7.104;2023-01-16T22:27:46;4.00;99.90
15184;DHT22;7693;49.266;7.104;2023-01-16T22:30:13;4.00;99.90
15184;DHT22;7693;49.266;7.104;2023-01-16T22:32:39;3.90;99.90
15184;DHT22;7693;49.266;7.104;2023-01-16T22:35:06;3.90;99.90
15184;DHT22;7693;49.266;7.104;2023-01-16T22:37:32;3.90;99.90
15184;DHT22;7693;49.266;7.104;2023-01-16T22:39:57;3.90;99.90
15184;DHT22;7693;49.266;7.104;2023-01-16T22:42:23;3.90;99.90
15184;DHT22;7693;49.266;7.104;2023-01-16T22:44:49;3.80;99.90
15184;DHT22;7693;49.266;7.104;2023-01-16T22:47:33;3.80;99.90
15184;DHT22;7693;49.266;7.104;2023-01-16T22:49:59;3.80;99.90
15184;DHT22;7693;49.266;7.104;2023-01-16T22:52:25;3.80;99.90
15184;DHT22;7693;49.266;7.104;2023-01-16T22:54:51;3.80;99.90
15184;DHT22;7693;49.266;7.104;2023-01-16T22:57:17;3.70;99.90
15184;DHT22;7693;49.266;7.104;2023-01-16T22:59:42;3.70;99.90
15184;DHT22;7693;49.266;7.104;2023-01-16T23:02:08;3.60;99.90
15184;DHT22;7693;49.266;7.104;2023-01-16T23:04:35;3.50;99.90
15184;DHT22;7693;49.266;7.104;2023-01-16T23:07:01;3.50;99.90
15184;DHT22;7693;49.266;7.104;2023-01-16T23:09:27;3.40;99.90
15184;DHT22;7693;49.266;7.104;2023-01-16T23:11:53;3.40;99.90
15184;DHT22;7693;49.266;7.104;2023-01-16T23:14:22;3.30;99.90
15184;DHT22;7693;49.266;7.104;2023-01-16T23:16:49;3.30;99.90
15184;DHT22;7693;49.266;7.104;2023-01-16T23:19:18;3.30;99.90
15184;DHT22;7693;49.266;7.104;2023-01-16T23:21:45;3.30;99.90
15184;DHT22;7693;49.266;7.104;2023-01-16T23:24:19;3.30;99.90
15184;DHT22;7693;49.266;7.104;2023-01-16T23:26:46;3.30;99.90
15184;DHT22;7693;49.266;7.104;2023-01-16T23:29:12;3.30;99.90
